Time;durP1;ratioP1;P1;durP2;ratioP2;P2;SDS_P1;SDS_P2;PMS_P1;PMS_P2;Temp;Humidity;BMP_temperature;BMP_pressure;BME280_temperature;BME280_humidity;BME280_pressure;Samples;Min_cycle;Max_cycle;Signal;HPM_P1;HPM_P2
2022/03/28 00:02:04;;;;;;;56.22;25.13;;;6.30;99.90;;;;;;5055338;28;20029;-87
2022/03/28 00:04:29;;;;;;;72.38;25.88;;;6.30;99.90;;;;;;5040086;28;20055;-87
2022/03/28 00:06:55;;;;;;;78.68;29.92;;;6.20;99.90;;;;;;5033106;28;20040;-86
2022/03/28 00:09:21;;;;;;;89.80;32.22;;;6.20;99.90;;;;;;5040721;28;20236;-86
2022/03/28 00:11:46;;;;;;;78.40;28.30;;;6.20;99.90;;;;;;5040218;28;20734;-86
2022/03/28 00:14:12;;;;;;;90.43;31.67;;;6.20;99.90;;;;;;5051653;28;20488;-86
2022/03/28 00:16:38;;;;;;;71.25;28.95;;;6.20;99.90;;;;;;5056053;28;20084;-86
2022/03/28 00:19:03;;;;;;;87.63;31.00;;;6.40;99.90;;;;;;5038231;28;20044;-85
2022/03/28 00:21:29;;;;;;;63.00;28.95;;;6.30;99.90;;;;;;5040360;28;20064;-86
2022/03/28 00:23:55;;;;;;;62.03;28.02;;;6.40;99.90;;;;;;5040934;28;20085;-86
2022/03/28 00:26:21;;;;;;;71.43;29.70;;;6.50;99.90;;;;;;5040523;28;20222;-87
2022/03/28 00:28:47;;;;;;;41.55;21.38;;;6.50;99.90;;;;;;5040166;28;20214;-84
2022/03/28 00:31:14;;;;;;;39.83;21.38;;;6.30;99.90;;;;;;5056218;28;20060;-84
2022/03/28 00:33:40;;;;;;;53.97;24.23;;;6.30;99.90;;;;;;5054588;28;20028;-82
2022/03/28 00:36:06;;;;;;;45.60;23.63;;;6.40;99.90;;;;;;5041770;28;20180;-86
2022/03/28 00:38:32;;;;;;;42.92;22.70;;;6.40;99.90;;;;;;5037060;28;20037;-86
2022/03/28 00:40:58;;;;;;;39.83;20.30;;;6.40;99.90;;;;;;5037648;28;20339;-86
2022/03/28 00:43:24;;;;;;;46.00;21.73;;;6.20;99.90;;;;;;5040039;28;20582;-85
2022/03/28 00:45:49;;;;;;;46.08;21.60;;;6.20;99.90;;;;;;5051286;28;21399;-86
2022/03/28 00:48:15;;;;;;;36.75;19.38;;;6.30;99.90;;;;;;5038171;28;20035;-86
2022/03/28 00:50:41;;;;;;;40.28;20.48;;;6.30;99.90;;;;;;5054269;28;20338;-86
2022/03/28 00:53:12;;;;;;;36.50;18.77;;;6.30;99.90;;;;;;5053937;28;20101;-86
2022/03/28 00:55:38;;;;;;;29.67;17.85;;;6.40;99.90;;;;;;5039963;28;20034;-86
2022/03/28 00:58:09;;;;;;;33.85;18.10;;;6.40;99.90;;;;;;5038614;28;20044;-86
2022/03/28 01:00:35;;;;;;;30.60;17.38;;;6.40;99.90;;;;;;5036641;28;20043;-86
2022/03/28 01:03:01;;;;;;;30.95;14.82;;;6.30;99.90;;;;;;5038870;28;20056;-86
2022/03/28 01:05:31;;;;;;;20.48;12.20;;;6.40;99.90;;;;;;5051220;28;20119;-86
2022/03/28 01:08:02;;;;;;;17.05;11.77;;;6.40;99.90;;;;;;5036667;28;20120;-86
2022/03/28 01:10:30;;;;;;;17.73;11.25;;;6.40;99.90;;;;;;5054905;28;20044;-85
2022/03/28 01:12:57;;;;;;;18.35;11.20;;;6.40;99.90;;;;;;5039489;28;20029;-85
2022/03/28 01:15:23;;;;;;;14.05;10.95;;;6.40;99.90;;;;;;5054694;28;20115;-86
2022/03/28 01:18:09;;;;;;;14.00;9.80;;;6.40;99.90;;;;;;5037964;28;20887;-86
2022/03/28 01:20:42;;;;;;;13.27;9.77;;;6.30;99.90;;;;;;5050538;28;20593;-86
2022/03/28 01:23:09;;;;;;;14.77;10.57;;;6.30;99.90;;;;;;5048324;28;20128;-85
2022/03/28 01:25:37;;;;;;;13.73;9.80;;;6.30;99.90;;;;;;5050647;28;20033;-86
2022/03/28 01:28:04;;;;;;;15.85;11.48;;;6.30;99.90;;;;;;5051003;28;20419;-86
2022/03/28 01:30:39;;;;;;;17.42;12.38;;;6.30;99.90;;;;;;5036446;28;20048;-86
2022/03/28 01:33:07;;;;;;;;;;;6.30;99.90;;;;;;5038816;28;20455;-86
2022/03/28 01:35:38;;;;;;;15.70;10.40;;;6.40;99.90;;;;;;5054378;28;19931;-86
2022/03/28 01:38:07;;;;;;;19.50;12.68;;;6.30;99.90;;;;;;5054622;28;20467;-86
2022/03/28 01:40:40;;;;;;;19.17;12.43;;;6.30;99.90;;;;;;5038428;28;20044;-86
2022/03/28 01:43:06;;;;;;;16.42;11.10;;;6.20;99.90;;;;;;5054280;28;20076;-87
2022/03/28 01:45:32;;;;;;;18.77;11.95;;;6.20;99.90;;;;;;5050576;28;20460;-86
2022/03/28 01:47:58;;;;;;;20.92;12.98;;;6.40;99.90;;;;;;5039027;28;20040;-86
2022/03/28 01:50:25;;;;;;;21.15;12.57;;;6.30;99.90;;;;;;5053077;28;20784;-85
2022/03/28 01:52:51;;;;;;;22.92;13.13;;;6.20;99.90;;;;;;5052701;28;20226;-86
2022/03/28 01:55:25;;;;;;;21.92;13.95;;;6.30;99.90;;;;;;5055265;28;20141;-86
2022/03/28 01:57:54;;;;;;;25.02;14.65;;;6.20;99.90;;;;;;5055143;28;20412;-86
2022/03/28 02:00:25;;;;;;;19.23;12.55;;;6.30;99.90;;;;;;5052704;28;20499;-86
2022/03/28 02:02:52;;;;;;;21.70;11.45;;;6.20;99.90;;;;;;5053209;28;20057;-86
2022/03/28 02:05:18;;;;;;;18.23;11.27;;;6.20;99.90;;;;;;5053012;28;20135;-86
2022/03/28 02:07:47;;;;;;;17.13;10.13;;;6.20;99.90;;;;;;5055485;28;20909;-86
2022/03/28 02:10:15;;;;;;;18.67;10.55;;;6.10;99.90;;;;;;5032909;28;20214;-86
2022/03/28 02:12:42;;;;;;;16.38;9.85;;;6.10;99.90;;;;;;5040976;28;20374;-86
2022/03/28 02:15:11;;;;;;;19.00;10.88;;;6.10;99.90;;;;;;5050190;28;20040;-86
2022/03/28 02:17:40;;;;;;;19.67;12.52;;;6.10;99.90;;;;;;5055767;28;20251;-86
2022/03/28 02:20:10;;;;;;;18.88;10.98;;;6.00;99.90;;;;;;5038580;28;20063;-85
2022/03/28 02:22:58;;;;;;;20.73;12.20;;;6.10;99.90;;;;;;5039562;28;20036;-86
2022/03/28 02:25:23;;;;;;;20.00;12.40;;;5.90;99.90;;;;;;5056280;28;20055;-86
2022/03/28 02:27:48;;;;;;;27.02;13.45;;;5.90;99.90;;;;;;5056854;28;20439;-85
2022/03/28 02:30:15;;;;;;;20.70;12.40;;;6.00;99.90;;;;;;5056044;28;20052;-86
2022/03/28 02:32:43;;;;;;;24.83;13.40;;;5.90;99.90;;;;;;5055854;28;20040;-86
2022/03/28 02:35:12;;;;;;;22.80;12.73;;;5.90;99.90;;;;;;5055086;28;20069;-86
2022/03/28 02:37:47;;;;;;;23.13;13.43;;;5.80;99.90;;;;;;5039416;28;20043;-87
2022/03/28 02:40:13;;;;;;;18.13;12.13;;;5.90;99.90;;;;;;5042027;28;20037;-86
2022/03/28 02:42:48;;;;;;;18.98;11.80;;;5.80;99.90;;;;;;5057526;28;20033;-86
2022/03/28 02:45:22;;;;;;;15.68;11.23;;;5.90;99.90;;;;;;5057634;28;20048;-86
2022/03/28 02:47:48;;;;;;;19.65;11.20;;;5.80;99.90;;;;;;5042533;28;20072;-86
2022/03/28 02:50:13;;;;;;;18.27;11.43;;;5.80;99.90;;;;;;5041294;28;20119;-86
2022/03/28 02:52:42;;;;;;;20.15;11.77;;;5.70;99.90;;;;;;5042000;28;20036;-86
2022/03/28 02:55:08;;;;;;;16.80;11.90;;;5.60;99.90;;;;;;5039399;28;20029;-85
2022/03/28 02:57:34;;;;;;;21.92;12.63;;;5.70;99.90;;;;;;5055328;28;20127;-86
2022/03/28 03:00:15;;;;;;;16.00;11.00;;;5.80;99.90;;;;;;5056663;28;20028;-87
2022/03/28 03:03:04;;;;;;;20.08;12.88;;;5.80;99.90;;;;;;5069365;28;20543;-86
2022/03/28 03:05:33;;;;;;;24.55;13.88;;;5.90;99.90;;;;;;5050166;28;20052;-86
2022/03/28 03:08:08;;;;;;;25.05;14.60;;;6.00;99.90;;;;;;5054407;28;20049;-86
2022/03/28 03:10:37;;;;;;;20.05;14.20;;;5.90;99.90;;;;;;5037558;28;20060;-86
2022/03/28 03:13:03;;;;;;;21.77;13.18;;;6.00;99.90;;;;;;5040452;28;20068;-84
2022/03/28 03:15:29;;;;;;;16.58;11.45;;;5.90;99.90;;;;;;5053876;28;20044;-86
2022/03/28 03:17:55;;;;;;;20.83;12.38;;;6.00;99.90;;;;;;5056010;28;20046;-86
2022/03/28 03:20:26;;;;;;;15.48;11.10;;;6.00;99.90;;;;;;5054802;28;20063;-87
2022/03/28 03:22:51;;;;;;;18.25;12.48;;;6.10;99.90;;;;;;5036881;28;20086;-86
2022/03/28 03:25:17;;;;;;;18.52;11.80;;;6.10;99.90;;;;;;5054692;28;20041;-86
2022/03/28 03:27:51;;;;;;;19.52;12.63;;;6.10;99.90;;;;;;5056734;28;20093;-85
2022/03/28 03:30:20;;;;;;;24.85;13.95;;;6.10;99.90;;;;;;5054452;28;20535;-85
2022/03/28 03:32:49;;;;;;;22.27;13.00;;;6.10;99.90;;;;;;5041705;28;20534;-86
2022/03/28 03:35:17;;;;;;;20.70;13.40;;;6.10;99.90;;;;;;5036502;28;20032;-86
2022/03/28 03:37:43;;;;;;;23.65;14.30;;;6.10;99.90;;;;;;5041983;28;20475;-85
2022/03/28 03:40:12;;;;;;;22.88;13.02;;;6.10;99.90;;;;;;5041943;28;20040;-85
2022/03/28 03:42:44;;;;;;;25.33;12.45;;;5.90;99.90;;;;;;5056530;28;20048;-86
2022/03/28 03:45:12;;;;;;;20.35;11.60;;;5.90;99.90;;;;;;5038041;28;20090;-85
2022/03/28 03:47:38;;;;;;;17.45;10.63;;;6.00;99.90;;;;;;5056179;28;20161;-86
2022/03/28 03:50:05;;;;;;;22.40;10.68;;;6.00;99.90;;;;;;5039678;28;20673;-86
2022/03/28 03:52:31;;;;;;;25.40;10.85;;;5.90;99.90;;;;;;5057716;28;20522;-85
2022/03/28 03:55:00;;;;;;;18.35;10.30;;;5.90;99.90;;;;;;5038802;28;20036;-86
2022/03/28 03:57:31;;;;;;;17.98;10.57;;;5.90;99.90;;;;;;5053919;28;20047;-86
2022/03/28 03:59:59;;;;;;;25.08;10.93;;;5.90;99.90;;;;;;5040854;28;20073;-86
2022/03/28 04:02:25;;;;;;;20.35;10.57;;;5.90;99.90;;;;;;5040329;28;20063;-85
2022/03/28 04:04:51;;;;;;;21.77;11.48;;;6.00;99.90;;;;;;5037443;28;20052;-86
2022/03/28 04:07:19;;;;;;;22.25;11.18;;;5.90;99.90;;;;;;5053854;28;20041;-85
2022/03/28 04:09:53;;;;;;;26.30;11.00;;;5.90;99.90;;;;;;5039511;28;20040;-86
2022/03/28 04:12:23;;;;;;;28.52;11.32;;;5.90;99.90;;;;;;5040973;28;20504;-86
2022/03/28 04:14:57;;;;;;;22.83;10.60;;;5.80;99.90;;;;;;5036667;28;20136;-86
2022/03/28 04:17:28;;;;;;;;;;;5.70;99.90;;;;;;5053453;28;20036;-85
2022/03/28 04:19:55;;;;;;;18.63;8.90;;;5.50;99.90;;;;;;5052616;28;19916;-85
2022/03/28 04:22:21;;;;;;;16.00;7.47;;;5.50;99.90;;;;;;5034632;28;20078;-86
2022/03/28 04:24:50;;;;;;;17.08;8.48;;;5.40;99.90;;;;;;5068579;28;20270;-86
2022/03/28 04:27:16;;;;;;;12.95;7.20;;;5.30;99.90;;;;;;5037362;28;20105;-86
2022/03/28 04:29:44;;;;;;;11.40;6.90;;;5.30;99.90;;;;;;5051431;28;20044;-86
2022/03/28 04:32:12;;;;;;;13.15;7.07;;;5.40;99.90;;;;;;5053444;28;20400;-85
2022/03/28 04:34:45;;;;;;;10.70;5.93;;;5.40;99.90;;;;;;5067017;28;20360;-86
2022/03/28 04:37:10;;;;;;;11.05;5.40;;;5.40;99.90;;;;;;5036710;28;20310;-86
2022/03/28 04:39:36;;;;;;;9.40;4.82;;;5.30;99.90;;;;;;5036328;28;20259;-87
2022/03/28 04:42:06;;;;;;;11.00;5.93;;;5.30;99.90;;;;;;5037195;28;20055;-86
2022/03/28 04:44:32;;;;;;;17.23;8.18;;;5.40;99.90;;;;;;5037085;28;20045;-86
2022/03/28 04:47:01;;;;;;;18.02;8.75;;;5.30;99.90;;;;;;5052535;28;20109;-86
2022/03/28 04:49:38;;;;;;;18.13;8.85;;;5.30;99.90;;;;;;5051741;28;20033;-86
2022/03/28 04:52:04;;;;;;;16.85;8.77;;;5.20;99.90;;;;;;5039137;28;20197;-86
2022/03/28 04:54:33;;;;;;;16.15;9.20;;;5.30;99.90;;;;;;5058646;28;20029;-85
2022/03/28 04:57:01;;;;;;;18.88;9.90;;;5.40;99.90;;;;;;5037307;28;20472;-86
2022/03/28 04:59:29;;;;;;;26.83;12.55;;;5.30;99.90;;;;;;5037483;28;20059;-85
2022/03/28 05:01:57;;;;;;;21.58;11.23;;;5.30;99.90;;;;;;5052355;28;20116;-87
2022/03/28 05:04:33;;;;;;;21.08;11.15;;;5.40;99.90;;;;;;5039012;28;20110;-86
2022/03/28 05:07:06;;;;;;;21.65;11.32;;;5.30;99.90;;;;;;5052030;28;20056;-86
2022/03/28 05:09:34;;;;;;;;;;;5.40;99.90;;;;;;5038338;28;20040;-85
2022/03/28 05:12:04;;;;;;;15.68;8.15;;;5.40;99.90;;;;;;5034525;28;19932;-86
2022/03/28 05:14:33;;;;;;;17.80;9.02;;;5.30;99.90;;;;;;5051943;28;20040;-86
2022/03/28 05:16:58;;;;;;;16.70;8.80;;;5.30;99.90;;;;;;5037568;28;20043;-86
2022/03/28 05:19:24;;;;;;;18.45;10.15;;;5.20;99.90;;;;;;5064318;28;20037;-86
2022/03/28 05:21:55;;;;;;;17.13;8.70;;;5.10;99.90;;;;;;5055820;28;20587;-85
2022/03/28 05:24:25;;;;;;;17.00;9.48;;;5.10;99.90;;;;;;5053169;28;20047;-86
2022/03/28 05:26:51;;;;;;;17.17;9.40;;;5.30;99.90;;;;;;5065930;28;20044;-86
2022/03/28 05:29:24;;;;;;;15.80;9.25;;;5.20;99.90;;;;;;5051212;28;20432;-86
2022/03/28 05:31:50;;;;;;;12.75;7.25;;;5.20;99.90;;;;;;5037378;28;20032;-85
2022/03/28 05:34:16;;;;;;;9.48;5.15;;;5.30;99.90;;;;;;5032064;28;20119;-86
2022/03/28 05:36:43;;;;;;;10.73;5.18;;;5.30;99.90;;;;;;5038151;28;20135;-86
2022/03/28 05:39:09;;;;;;;15.00;7.38;;;5.40;99.90;;;;;;5054112;28;20606;-85
2022/03/28 05:41:41;;;;;;;15.77;7.78;;;5.40;99.90;;;;;;5051874;28;20114;-86
2022/03/28 05:44:16;;;;;;;15.18;6.55;;;5.30;99.90;;;;;;5035918;28;20039;-86
2022/03/28 05:46:50;;;;;;;14.77;7.45;;;5.30;99.90;;;;;;5055908;28;20040;-87
2022/03/28 05:49:16;;;;;;;28.42;12.95;;;5.30;99.90;;;;;;5054021;28;20044;-86
2022/03/28 05:51:45;;;;;;;31.85;12.48;;;5.20;99.90;;;;;;5053141;28;20040;-86
2022/03/28 05:54:14;;;;;;;30.23;12.82;;;5.30;99.90;;;;;;5041372;28;20040;-86
2022/03/28 05:56:40;;;;;;;36.70;13.32;;;5.30;99.90;;;;;;5042440;28;20044;-86
2022/03/28 05:59:07;;;;;;;33.38;12.77;;;5.30;99.90;;;;;;5057293;28;20036;-86
2022/03/28 06:01:39;;;;;;;38.80;14.88;;;5.10;99.90;;;;;;5057608;28;20157;-86
2022/03/28 06:04:07;;;;;;;38.45;14.77;;;5.20;99.90;;;;;;5041907;28;20052;-86
2022/03/28 06:06:34;;;;;;;32.13;13.90;;;5.20;99.90;;;;;;5055762;28;20098;-85
2022/03/28 06:09:04;;;;;;;47.85;18.77;;;5.50;99.90;;;;;;5041774;28;20117;-86
2022/03/28 06:11:29;;;;;;;60.70;23.60;;;5.50;99.90;;;;;;5040472;28;20033;-86
2022/03/28 06:14:04;;;;;;;61.60;24.45;;;5.40;99.90;;;;;;5057213;28;20033;-85
2022/03/28 06:16:33;;;;;;;73.45;27.35;;;5.40;99.90;;;;;;5042987;28;20271;-86
2022/03/28 06:19:08;;;;;;;72.68;29.65;;;5.40;99.90;;;;;;5055174;28;20589;-86
2022/03/28 06:21:37;;;;;;;54.95;26.77;;;5.40;99.90;;;;;;5041163;28;20327;-86
2022/03/28 06:24:09;;;;;;;65.00;29.25;;;5.50;99.90;;;;;;5041185;28;20634;-86
2022/03/28 06:26:46;;;;;;;;;;;5.40;99.90;;;;;;5057187;28;20036;-86
2022/03/28 06:29:12;;;;;;;74.15;29.92;;;5.40;99.90;;;;;;5039516;28;19924;-85
2022/03/28 06:31:38;;;;;;;66.05;30.48;;;5.40;99.90;;;;;;5056069;28;20047;-85
2022/03/28 06:34:13;;;;;;;61.45;29.15;;;5.70;99.90;;;;;;5040529;28;20037;-86
2022/03/28 06:36:39;;;;;;;78.30;32.55;;;5.70;99.90;;;;;;5055108;28;20044;-85
2022/03/28 06:39:07;;;;;;;80.03;31.88;;;5.70;99.90;;;;;;5041911;28;20028;-86
2022/03/28 06:41:33;;;;;;;77.75;32.58;;;5.60;99.90;;;;;;5056830;28;20129;-85
2022/03/28 06:43:59;;;;;;;74.25;31.58;;;5.70;99.90;;;;;;5040511;28;20352;-86
2022/03/28 06:46:25;;;;;;;80.07;31.65;;;5.80;99.90;;;;;;5041328;28;20113;-86
2022/03/28 06:48:54;;;;;;;72.97;31.13;;;5.90;99.90;;;;;;5054931;28;20064;-86
2022/03/28 06:51:20;;;;;;;65.70;29.70;;;5.70;99.90;;;;;;5041802;28;20044;-86
2022/03/28 06:53:54;;;;;;;66.45;31.20;;;5.70;99.90;;;;;;5041574;28;20365;-87
2022/03/28 06:56:21;;;;;;;56.92;27.20;;;5.70;99.90;;;;;;5055991;28;20119;-86
2022/03/28 06:58:47;;;;;;;54.50;26.27;;;5.70;99.90;;;;;;5053939;28;20136;-86
2022/03/28 07:01:12;;;;;;;51.70;27.75;;;5.80;99.90;;;;;;5056352;28;20043;-85
2022/03/28 07:03:39;;;;;;;53.50;27.85;;;6.00;99.90;;;;;;5054275;28;20127;-86
2022/03/28 07:06:05;;;;;;;50.83;27.38;;;6.00;99.90;;;;;;5041055;28;20123;-85
2022/03/28 07:08:30;;;;;;;49.75;25.48;;;5.90;99.90;;;;;;5041898;28;20115;-86
2022/03/28 07:10:58;;;;;;;57.28;28.10;;;6.10;99.90;;;;;;5042579;28;20115;-85
2022/03/28 07:13:26;;;;;;;59.22;27.38;;;5.90;99.90;;;;;;5040498;28;20036;-86
2022/03/28 07:15:52;;;;;;;49.72;25.63;;;5.90;99.90;;;;;;5042443;28;20479;-86
2022/03/28 07:18:18;;;;;;;53.20;26.98;;;6.00;99.90;;;;;;5041202;28;20116;-86
2022/03/28 07:20:46;;;;;;;49.80;26.23;;;6.10;99.90;;;;;;5042012;28;20064;-86
2022/03/28 07:23:18;;;;;;;45.05;22.65;;;6.00;99.90;;;;;;5057806;28;20345;-85
2022/03/28 07:25:47;;;;;;;50.47;24.73;;;6.00;99.90;;;;;;5056714;28;20156;-86
2022/03/28 07:28:14;;;;;;;37.05;21.35;;;6.20;99.90;;;;;;5054176;28;20443;-86
2022/03/28 07:30:43;;;;;;;32.20;18.88;;;6.20;99.90;;;;;;5054079;28;20032;-85
2022/03/28 07:33:11;;;;;;;26.02;16.85;;;6.30;99.90;;;;;;5056742;28;20413;-86
2022/03/28 07:35:38;;;;;;;25.13;16.00;;;6.50;99.90;;;;;;5042136;28;20083;-86
2022/03/28 07:38:10;;;;;;;24.45;15.73;;;6.20;99.90;;;;;;5057024;28;20104;-86
2022/03/28 07:40:37;;;;;;;24.98;15.70;;;6.40;99.90;;;;;;5038627;28;20492;-86
2022/03/28 07:43:10;;;;;;;23.67;16.15;;;6.30;99.90;;;;;;5040392;28;20032;-86
2022/03/28 07:45:38;;;;;;;26.45;17.60;;;6.50;99.90;;;;;;5053950;28;20124;-87
2022/03/28 07:48:13;;;;;;;25.55;17.38;;;6.30;99.90;;;;;;5039770;28;20055;-86
2022/03/28 07:50:39;;;;;;;19.95;14.25;;;6.50;99.90;;;;;;5052767;28;20076;-87
2022/03/28 07:53:05;;;;;;;19.55;13.65;;;6.60;99.90;;;;;;5053978;28;20478;-85
2022/03/28 07:55:37;;;;;;;14.80;11.40;;;6.70;99.90;;;;;;5053286;28;20532;-86
2022/03/28 07:58:03;;;;;;;18.63;12.63;;;6.80;99.90;;;;;;5036032;28;20040;-86
2022/03/28 08:00:30;;;;;;;15.75;11.52;;;6.90;99.90;;;;;;5035067;28;20071;-86
2022/03/28 08:02:58;;;;;;;14.10;11.00;;;7.00;99.90;;;;;;5038689;28;20622;-86
2022/03/28 08:05:26;;;;;;;16.02;11.52;;;7.10;99.90;;;;;;5039266;28;20056;-87
2022/03/28 08:07:55;;;;;;;13.88;10.23;;;7.20;99.90;;;;;;5042374;28;20036;-87
2022/03/28 08:10:22;;;;;;;13.68;10.15;;;7.30;99.90;;;;;;5038918;28;20040;-86
2022/03/28 08:12:51;;;;;;;14.02;10.27;;;7.30;99.90;;;;;;5040442;28;20044;-87
2022/03/28 08:15:22;;;;;;;13.43;9.82;;;7.50;99.90;;;;;;5049085;28;20041;-86
2022/03/28 08:17:57;;;;;;;13.88;10.07;;;7.50;99.90;;;;;;5054413;28;20044;-87
2022/03/28 08:20:26;;;;;;;12.45;9.18;;;7.40;99.90;;;;;;5038832;28;20044;-87
2022/03/28 08:22:55;;;;;;;15.70;9.93;;;7.50;99.90;;;;;;5054567;28;20048;-87
2022/03/28 08:25:22;;;;;;;16.15;10.57;;;7.50;99.90;;;;;;5038141;28;20037;-87
2022/03/28 08:27:53;;;;;;;15.13;10.30;;;7.60;99.90;;;;;;5054644;28;20434;-87
2022/03/28 08:30:24;;;;;;;15.63;10.95;;;7.70;99.90;;;;;;5042172;28;20059;-87
2022/03/28 08:32:58;;;;;;;17.23;11.82;;;7.60;99.90;;;;;;5053068;28;20511;-87
2022/03/28 08:35:30;;;;;;;17.27;11.52;;;7.70;99.90;;;;;;5037316;28;20131;-86
2022/03/28 08:38:05;;;;;;;17.70;11.90;;;7.60;99.90;;;;;;5054481;28;20479;-86
2022/03/28 08:40:30;;;;;;;17.88;12.82;;;7.70;99.90;;;;;;5053103;28;20086;-87
2022/03/28 08:43:04;;;;;;;18.95;12.80;;;7.70;99.90;;;;;;5059006;28;20040;-86
2022/03/28 08:45:38;;;;;;;18.45;12.27;;;7.80;99.90;;;;;;5037838;28;20044;-86
2022/03/28 08:48:11;;;;;;;19.70;13.35;;;7.80;99.90;;;;;;5037737;28;20124;-87
2022/03/28 08:50:43;;;;;;;18.08;13.27;;;7.90;99.90;;;;;;5040343;28;20870;-87
2022/03/28 08:53:13;;;;;;;24.10;14.90;;;7.90;99.90;;;;;;5055532;28;20049;-86
2022/03/28 08:55:44;;;;;;;20.95;12.93;;;7.90;99.90;;;;;;5039815;28;20535;-86
2022/03/28 08:58:15;;;;;;;20.55;12.95;;;8.10;99.90;;;;;;5054458;28;20052;-87
2022/03/28 09:00:42;;;;;;;16.50;11.55;;;7.90;99.90;;;;;;5037707;28;20033;-86
2022/03/28 09:03:11;;;;;;;19.38;12.30;;;7.90;99.90;;;;;;5037858;28;20693;-86
2022/03/28 09:05:50;;;;;;;20.27;12.85;;;8.10;99.90;;;;;;5038562;28;20047;-87
2022/03/28 09:08:15;;;;;;;21.35;11.80;;;8.20;99.90;;;;;;5052979;28;20564;-86
2022/03/28 09:10:50;;;;;;;16.65;11.73;;;8.20;99.90;;;;;;5042353;28;20282;-86
2022/03/28 09:13:16;;;;;;;15.13;10.73;;;8.30;99.90;;;;;;5037263;28;20052;-86
2022/03/28 09:15:55;;;;;;;15.75;11.73;;;8.20;99.90;;;;;;5036427;28;20408;-86
2022/03/28 09:18:30;;;;;;;17.30;11.55;;;8.50;99.90;;;;;;5038700;28;20041;-86
2022/03/28 09:21:04;;;;;;;15.75;11.80;;;8.60;99.90;;;;;;5053759;28;20040;-86
2022/03/28 09:23:40;;;;;;;16.80;10.48;;;8.60;99.90;;;;;;5039887;28;20408;-86
2022/03/28 09:26:16;;;;;;;17.00;10.85;;;8.20;99.90;;;;;;5047148;28;20040;-87
2022/03/28 09:28:53;;;;;;;13.75;10.68;;;8.50;99.90;;;;;;5037128;28;20033;-87
2022/03/28 09:31:30;;;;;;;14.55;10.13;;;8.80;99.90;;;;;;5053610;28;20056;-87
2022/03/28 09:34:16;;;;;;;14.52;10.73;;;8.70;99.90;;;;;;5038841;28;20028;-85
2022/03/28 09:36:56;;;;;;;19.15;12.27;;;8.90;99.90;;;;;;5038630;28;20037;-87
2022/03/28 09:39:32;;;;;;;15.27;10.82;;;8.90;99.90;;;;;;5037914;28;20471;-87
2022/03/28 09:42:15;;;;;;;16.80;11.68;;;8.90;99.90;;;;;;5038303;28;20040;-87
2022/03/28 09:44:51;;;;;;;17.00;11.65;;;8.90;99.90;;;;;;5038997;28;20123;-86
2022/03/28 09:47:59;;;;;;;17.90;12.82;;;9.10;99.90;;;;;;5055710;28;20105;-86
2022/03/28 09:50:42;;;;;;;16.55;12.50;;;8.40;99.90;;;;;;5039087;28;20037;-87
2022/03/28 09:53:31;;;;;;;17.10;12.65;;;8.80;99.90;;;;;;5038552;28;20033;-87
2022/03/28 09:56:13;;;;;;;19.42;12.73;;;8.20;99.90;;;;;;5055961;28;20328;-86
2022/03/28 09:58:48;;;;;;;18.45;12.90;;;8.40;99.90;;;;;;5055343;28;20484;-86
2022/03/28 10:01:20;;;;;;;18.77;12.70;;;8.60;99.90;;;;;;5040440;28;20040;-86
2022/03/28 10:04:00;;;;;;;21.45;14.18;;;9.10;99.90;;;;;;5050181;28;20056;-87
2022/03/28 10:06:29;;;;;;;19.55;13.38;;;8.90;99.90;;;;;;5053055;28;20407;-87
2022/03/28 10:09:03;;;;;;;17.00;13.30;;;9.30;99.90;;;;;;5034854;28;20040;-86
2022/03/28 10:11:31;;;;;;;17.88;13.68;;;9.40;99.90;;;;;;5037240;28;20039;-87
2022/03/28 10:14:06;;;;;;;17.08;12.85;;;9.40;99.90;;;;;;5053843;28;20040;-86
2022/03/28 10:16:37;;;;;;;17.63;13.57;;;9.50;99.90;;;;;;5055116;28;20476;-87
2022/03/28 10:19:03;;;;;;;20.70;14.02;;;9.50;99.90;;;;;;5039311;28;20043;-87
2022/03/28 10:21:35;;;;;;;19.02;13.63;;;9.80;99.90;;;;;;5049324;28;20052;-87
2022/03/28 10:24:10;;;;;;;18.08;13.45;;;9.80;99.90;;;;;;5054535;28;20115;-87
2022/03/28 10:26:48;;;;;;;19.13;14.20;;;9.70;72.40;;;;;;5038188;28;20131;-86
2022/03/28 10:29:25;;;;;;;17.98;13.50;;;9.40;81.10;;;;;;5036004;28;20048;-85
2022/03/28 10:32:03;;;;;;;20.25;14.55;;;9.10;59.60;;;;;;5054371;28;20063;-87
2022/03/28 10:34:52;;;;;;;21.95;15.77;;;9.50;99.90;;;;;;5057565;28;20036;-86
2022/03/28 10:37:33;;;;;;;19.02;14.35;;;9.20;99.90;;;;;;5057786;28;20576;-86
2022/03/28 10:40:26;;;;;;;20.05;15.90;;;9.60;99.90;;;;;;5057760;28;20044;-87
2022/03/28 10:43:01;;;;;;;18.05;14.27;;;9.10;99.90;;;;;;5056597;28;20036;-86
2022/03/28 10:45:45;;;;;;;20.52;14.18;;;9.10;99.90;;;;;;5038580;28;20052;-86
2022/03/28 10:48:19;;;;;;;22.15;15.65;;;9.00;29.50;;;;;;5041870;28;20060;-86
2022/03/28 10:50:55;;;;;;;20.90;14.75;;;9.20;99.90;;;;;;5056352;28;20045;-87
2022/03/28 10:53:39;;;;;;;18.33;14.13;;;9.20;44.80;;;;;;5042378;28;20041;-87
2022/03/28 10:56:40;;;;;;;21.10;15.20;;;9.70;92.50;;;;;;5055699;28;20041;-87
2022/03/28 10:59:18;;;;;;;20.63;14.98;;;10.00;36.50;;;;;;5053455;28;20067;-87
2022/03/28 11:01:52;;;;;;;19.75;14.18;;;10.00;34.30;;;;;;5056487;28;20044;-87
2022/03/28 11:04:24;;;;;;;18.42;14.48;;;10.00;14.70;;;;;;5073211;28;20492;-87
2022/03/28 11:07:11;;;;;;;18.88;14.60;;;10.30;1.00;;;;;;5056259;28;20076;-88
2022/03/28 11:10:08;;;;;;;17.77;13.98;;;10.30;1.00;;;;;;5036767;28;20293;-87
2022/03/28 11:12:51;;;;;;;19.50;15.30;;;10.30;12.70;;;;;;5056551;28;20384;-87
2022/03/28 11:15:26;;;;;;;19.80;14.60;;;10.50;20.00;;;;;;5052871;28;20076;-87
2022/03/28 11:18:09;;;;;;;18.50;14.25;;;10.40;1.00;;;;;;5042314;28;20145;-88
2022/03/28 11:20:56;;;;;;;20.15;14.45;;;10.20;1.00;;;;;;5040477;28;20032;-87
2022/03/28 11:23:31;;;;;;;18.27;14.20;;;10.40;1.00;;;;;;5042898;28;20317;-88
2022/03/28 11:26:02;;;;;;;18.88;14.80;;;11.10;1.00;;;;;;5057428;28;20043;-87
2022/03/28 11:28:38;;;;;;;19.92;14.73;;;11.40;1.00;;;;;;5042201;28;20040;-88
2022/03/28 11:31:15;;;;;;;18.08;14.60;;;11.40;99.90;;;;;;5056769;28;20044;-87
2022/03/28 11:33:46;;;;;;;18.05;14.32;;;11.20;99.90;;;;;;5071073;28;20263;-87
2022/03/28 11:36:24;;;;;;;19.35;14.55;;;11.60;99.90;;;;;;5039561;28;20036;-87
2022/03/28 11:39:00;;;;;;;17.98;14.23;;;11.60;99.90;;;;;;5053220;28;20037;-87
2022/03/28 11:41:26;;;;;;;18.90;15.00;;;11.10;99.90;;;;;;5041105;28;20488;-87
2022/03/28 11:43:57;;;;;;;19.25;14.50;;;11.00;99.90;;;;;;5039504;28;20505;-86
2022/03/28 11:46:32;;;;;;;20.45;15.40;;;11.30;99.90;;;;;;5037652;28;20408;-87
2022/03/28 11:49:09;;;;;;;21.27;15.30;;;11.60;99.90;;;;;;5040341;28;20040;-87
2022/03/28 11:51:43;;;;;;;17.85;14.73;;;11.40;99.90;;;;;;5054735;28;20103;-86
2022/03/28 11:54:13;;;;;;;18.55;14.98;;;12.10;99.90;;;;;;5039837;28;20124;-87
2022/03/28 11:59:37;;;;;;;18.90;15.40;;;11.70;99.90;;;;;;5053333;28;20446;-88
2022/03/28 12:02:03;;;;;;;;;;;11.70;99.90;;;;;;5056503;28;20049;-87
2022/03/28 12:04:32;;;;;;;19.75;14.73;;;11.00;99.90;;;;;;5051815;28;19920;-88
2022/03/28 12:06:59;;;;;;;19.67;15.05;;;11.20;99.90;;;;;;5053533;28;20272;-87
2022/03/28 12:09:25;;;;;;;19.05;15.38;;;11.80;99.90;;;;;;5051914;28;20043;-87
2022/03/28 12:11:55;;;;;;;19.35;14.55;;;12.40;99.90;;;;;;5039181;28;20439;-85
2022/03/28 12:14:22;;;;;;;19.00;15.00;;;12.50;1.00;;;;;;5052227;28;20558;-87
2022/03/28 12:16:53;;;;;;;18.15;15.00;;;12.30;1.00;;;;;;5038866;28;20040;-88
2022/03/28 12:19:21;;;;;;;18.83;15.23;;;13.10;1.00;;;;;;5037467;28;20108;-87
2022/03/28 12:21:59;;;;;;;22.25;14.73;;;12.20;1.00;;;;;;5039462;28;20116;-87
2022/03/28 12:24:25;;;;;;;;;;;13.20;1.00;;;;;;5036797;28;20044;-87
2022/03/28 12:26:59;;;;;;;21.58;14.80;;;13.40;99.90;;;;;;5038110;28;20377;-88
2022/03/28 12:29:37;;;;;;;18.25;15.20;;;12.80;99.90;;;;;;5051887;28;20120;-87
2022/03/28 12:32:06;;;;;;;;;;;11.80;1.00;;;;;;5039759;28;20066;-87
2022/03/28 12:34:35;;;;;;;18.10;14.95;;;12.60;99.90;;;;;;5037587;28;19920;-90
2022/03/28 12:37:04;;;;;;;19.20;15.02;;;14.20;99.90;;;;;;5039962;28;20037;-89
2022/03/28 12:39:30;;;;;;;18.38;14.32;;;14.60;99.90;;;;;;5052969;28;20037;-88
2022/03/28 12:42:00;;;;;;;18.23;14.95;;;13.50;99.90;;;;;;5050538;28;20068;-88
2022/03/28 12:44:29;;;;;;;16.80;14.50;;;12.70;99.90;;;;;;5052509;28;20048;-87
2022/03/28 12:47:07;;;;;;;17.95;14.65;;;13.00;99.90;;;;;;5051533;28;20311;-88
2022/03/28 12:49:43;;;;;;;17.83;13.85;;;13.40;1.00;;;;;;5052658;28;20040;-87
2022/03/28 12:52:22;;;;;;;17.80;15.13;;;13.70;99.90;;;;;;5042040;28;20403;-87
2022/03/28 12:54:57;;;;;;;18.35;14.48;;;12.70;99.90;;;;;;5052984;28;20090;-89
2022/03/28 12:57:27;;;;;;;;;;;13.50;1.00;;;;;;5040373;28;20384;-87
2022/03/28 12:59:54;;;;;;;18.05;14.77;;;13.50;99.90;;;;;;5037542;28;19920;-87
2022/03/28 13:02:23;;;;;;;18.48;14.63;;;12.60;99.90;;;;;;5037463;28;20040;-87